createdAt,value
2023-05-13T00:00:26.107Z,1.83
2023-05-13T00:02:53.977Z,2.13
2023-05-13T00:05:22.442Z,2.00
2023-05-13T00:07:50.348Z,2.10
2023-05-13T00:10:20.544Z,2.10
2023-05-13T00:12:48.709Z,2.10
2023-05-13T00:15:16.620Z,1.90
2023-05-13T00:17:46.642Z,1.90
2023-05-13T00:20:14.501Z,1.70
2023-05-13T00:22:42.365Z,1.90
2023-05-13T00:25:11.005Z,1.67
2023-05-13T00:27:40.525Z,1.87
2023-05-13T00:30:09.693Z,1.90
2023-05-13T00:32:37.632Z,2.00
2023-05-13T00:35:07.388Z,2.00
2023-05-13T00:37:35.438Z,2.10
2023-05-13T00:40:03.542Z,2.03
2023-05-13T00:42:31.403Z,2.13
2023-05-13T00:45:00.579Z,2.03
2023-05-13T00:47:28.506Z,2.13
2023-05-13T00:49:56.593Z,2.53
2023-05-13T00:52:24.639Z,2.10
2023-05-13T00:54:52.528Z,1.90
2023-05-13T00:57:20.470Z,2.10
2023-05-13T00:59:48.362Z,2.37
2023-05-13T01:02:22.013Z,2.47
2023-05-13T01:04:57.017Z,1.80
2023-05-13T01:07:30.005Z,1.80
2023-05-13T01:10:04.076Z,2.10
2023-05-13T01:12:34.486Z,2.07
2023-05-13T01:15:06.990Z,2.20
2023-05-13T01:17:41.491Z,2.30
2023-05-13T01:20:09.981Z,1.90
2023-05-13T01:22:39.202Z,1.80
2023-05-13T01:25:07.672Z,1.90
2023-05-13T01:27:35.574Z,1.90
2023-05-13T01:30:03.763Z,1.87
2023-05-13T01:32:32.291Z,1.80
2023-05-13T01:35:00.748Z,1.60
2023-05-13T01:37:29.491Z,1.70
2023-05-13T01:39:58.856Z,1.73
2023-05-13T01:42:30.140Z,1.50
2023-05-13T01:44:58.984Z,1.70
2023-05-13T01:47:27.172Z,1.70
2023-05-13T01:49:54.993Z,1.50
2023-05-13T01:52:22.832Z,1.37
2023-05-13T01:54:50.828Z,1.73
2023-05-13T01:57:20.003Z,1.33
2023-05-13T01:59:48.018Z,1.03
2023-05-13T02:02:15.923Z,1.20
2023-05-13T02:04:43.870Z,1.50
2023-05-13T02:07:11.710Z,1.33
2023-05-13T02:09:39.560Z,1.30
2023-05-13T02:12:08.339Z,1.40
2023-05-13T02:14:38.352Z,1.37
2023-05-13T02:17:06.388Z,1.10
2023-05-13T02:19:34.259Z,1.27
2023-05-13T02:22:02.076Z,1.37
2023-05-13T02:24:32.125Z,1.30
2023-05-13T02:27:00.033Z,1.80
2023-05-13T02:29:28.150Z,1.43
2023-05-13T02:31:57.437Z,1.40
2023-05-13T02:34:25.352Z,1.30
2023-05-13T02:36:53.437Z,1.47
2023-05-13T02:39:21.309Z,1.50
2023-05-13T02:41:49.165Z,1.50
2023-05-13T02:44:16.970Z,1.40
2023-05-13T02:46:44.873Z,1.80
2023-05-13T02:49:14.194Z,1.70
2023-05-13T02:51:42.062Z,1.80
2023-05-13T02:54:09.912Z,1.80
2023-05-13T02:56:37.783Z,1.80
2023-05-13T02:59:05.644Z,1.80
2023-05-13T03:01:33.732Z,2.03
2023-05-13T03:04:01.603Z,1.80
2023-05-13T03:06:31.758Z,1.70
2023-05-13T03:08:59.574Z,2.27
2023-05-13T03:11:27.850Z,1.93
2023-05-13T03:13:55.774Z,1.93
2023-05-13T03:16:23.678Z,1.90
2023-05-13T03:18:51.944Z,1.90
2023-05-13T03:21:19.868Z,1.70
2023-05-13T03:23:49.088Z,1.70
2023-05-13T03:26:17.048Z,1.80
2023-05-13T03:28:44.862Z,1.87
2023-05-13T03:31:13.618Z,1.77
2023-05-13T03:33:41.525Z,1.90
2023-05-13T03:36:09.798Z,2.00
2023-05-13T03:38:37.674Z,1.70
2023-05-13T03:41:06.945Z,1.60
2023-05-13T03:43:34.744Z,1.70
2023-05-13T03:46:02.595Z,1.73
2023-05-13T03:48:30.455Z,1.80
2023-05-13T03:50:58.244Z,1.93
2023-05-13T03:53:26.055Z,1.60
2023-05-13T03:55:53.946Z,1.70
2023-05-13T03:58:23.235Z,1.67
2023-05-13T04:00:51.056Z,1.70
2023-05-13T04:03:19.371Z,1.60
2023-05-13T04:05:47.894Z,1.70
2023-05-13T04:08:16.110Z,1.70
2023-05-13T04:10:44.005Z,1.70
2023-05-13T04:13:12.341Z,1.60
2023-05-13T04:15:41.613Z,1.60
2023-05-13T04:18:09.469Z,1.80
2023-05-13T04:20:38.991Z,1.57
2023-05-13T04:23:06.981Z,1.50
2023-05-13T04:25:36.532Z,1.53
2023-05-13T04:28:04.396Z,1.50
2023-05-13T04:30:32.243Z,1.50
2023-05-13T04:33:01.508Z,1.60
2023-05-13T04:35:29.436Z,1.53
2023-05-13T04:37:57.253Z,1.57
2023-05-13T04:40:25.086Z,1.67
2023-05-13T04:42:55.031Z,1.67
2023-05-13T04:45:23.787Z,1.57
2023-05-13T04:47:51.920Z,1.50
2023-05-13T04:50:21.378Z,1.63
2023-05-13T04:52:49.736Z,1.43
2023-05-13T04:55:17.938Z,1.70
2023-05-13T04:57:45.764Z,1.70
2023-05-13T05:00:14.961Z,1.70
2023-05-13T05:02:42.824Z,2.00
2023-05-13T05:05:11.182Z,1.70
2023-05-13T05:07:41.889Z,1.97
2023-05-13T05:10:10.580Z,1.70
2023-05-13T05:12:39.037Z,1.77
2023-05-13T05:15:11.408Z,1.90
2023-05-13T05:17:39.401Z,1.60
2023-05-13T05:20:08.554Z,1.60
2023-05-13T05:22:36.377Z,1.60
2023-05-13T05:25:06.294Z,1.63
2023-05-13T05:27:34.101Z,1.60
2023-05-13T05:30:02.186Z,1.80
2023-05-13T05:32:31.434Z,1.70
2023-05-13T05:35:02.211Z,2.00
2023-05-13T05:37:30.483Z,1.87
2023-05-13T05:39:58.335Z,1.87
2023-05-13T05:42:27.560Z,1.70
2023-05-13T05:44:55.657Z,1.53
2023-05-13T05:47:23.540Z,1.60
2023-05-13T05:49:51.625Z,1.90
2023-05-13T05:52:19.486Z,1.90
2023-05-13T05:54:47.613Z,1.80
2023-05-13T05:57:15.614Z,1.73
2023-05-13T05:59:44.799Z,1.87
2023-05-13T06:02:12.737Z,1.53
2023-05-13T06:04:41.858Z,1.80
2023-05-13T06:07:09.791Z,1.67
2023-05-13T06:09:37.705Z,1.60
2023-05-13T06:12:06.177Z,1.60
2023-05-13T06:14:34.093Z,1.50
2023-05-13T06:17:03.520Z,1.40
2023-05-13T06:19:31.448Z,1.63
2023-05-13T06:22:00.159Z,1.40
2023-05-13T06:24:28.733Z,1.70
2023-05-13T06:26:56.579Z,1.53
2023-05-13T06:29:24.392Z,1.40
2023-05-13T06:31:52.256Z,1.57
2023-05-13T06:34:21.577Z,1.73
2023-05-13T06:36:49.490Z,1.70
2023-05-13T06:39:17.325Z,1.40
2023-05-13T06:41:45.102Z,1.40
2023-05-13T06:44:12.964Z,1.23
2023-05-13T06:46:40.889Z,1.53
2023-05-13T06:49:08.759Z,1.73
2023-05-13T06:51:37.993Z,1.17
2023-05-13T06:54:06.122Z,1.30
2023-05-13T06:56:34.697Z,1.47
2023-05-13T06:59:02.547Z,1.40
2023-05-13T07:01:30.586Z,1.40
2023-05-13T07:03:58.866Z,1.40
2023-05-13T07:06:26.736Z,1.30
2023-05-13T07:08:56.016Z,1.53
2023-05-13T07:11:24.454Z,1.50
2023-05-13T07:13:52.310Z,1.40
2023-05-13T07:16:20.136Z,1.60
2023-05-13T07:18:48.028Z,1.17
2023-05-13T07:21:16.288Z,1.40
2023-05-13T07:23:44.765Z,1.30
2023-05-13T07:26:14.062Z,1.37
2023-05-13T07:28:41.960Z,1.33
2023-05-13T07:31:09.881Z,1.40
2023-05-13T07:33:37.806Z,1.40
2023-05-13T07:36:06.434Z,1.40
2023-05-13T07:38:34.343Z,1.50
2023-05-13T07:41:02.224Z,1.50
2023-05-13T07:43:34.937Z,1.57
2023-05-13T07:46:03.338Z,1.37
2023-05-13T07:48:31.709Z,1.40
2023-05-13T07:50:59.547Z,1.10
2023-05-13T07:53:27.464Z,1.40
2023-05-13T07:55:55.466Z,1.30
2023-05-13T07:58:23.383Z,1.10
2023-05-13T08:00:52.565Z,1.20
2023-05-13T08:03:20.461Z,1.30
2023-05-13T08:05:48.497Z,1.27
2023-05-13T08:08:16.332Z,1.20
2023-05-13T08:10:44.206Z,1.10
2023-05-13T08:13:12.023Z,1.27
2023-05-13T08:15:39.905Z,1.30
2023-05-13T08:18:09.236Z,1.30
2023-05-13T08:20:37.367Z,1.30
2023-05-13T08:23:06.275Z,1.17
2023-05-13T08:25:34.128Z,1.10
2023-05-13T08:28:01.927Z,1.10
2023-05-13T08:30:29.752Z,1.20
2023-05-13T08:32:57.572Z,0.97
2023-05-13T08:35:27.557Z,0.93
2023-05-13T08:37:55.385Z,1.10
2023-05-13T08:40:23.300Z,1.10
2023-05-13T08:42:53.553Z,0.93
2023-05-13T08:45:23.149Z,1.00
2023-05-13T08:47:53.256Z,1.00
2023-05-13T08:50:23.353Z,1.17
2023-05-13T08:52:54.029Z,1.03
2023-05-13T08:55:23.297Z,1.20
2023-05-13T08:57:52.706Z,1.33
2023-05-13T09:00:21.724Z,1.13
2023-05-13T09:02:50.756Z,1.17
2023-05-13T09:05:19.135Z,1.20
2023-05-13T09:07:47.039Z,1.30
2023-05-13T09:10:16.494Z,1.20
2023-05-13T09:12:48.641Z,1.27
2023-05-13T09:15:19.827Z,1.00
2023-05-13T09:17:51.574Z,1.20
2023-05-13T09:20:20.647Z,1.20
2023-05-13T09:22:48.928Z,1.20
2023-05-13T09:25:19.177Z,1.30
2023-05-13T09:27:49.382Z,1.30
2023-05-13T09:30:17.289Z,1.37
2023-05-13T09:32:45.173Z,1.40
2023-05-13T09:35:17.277Z,1.40
2023-05-13T09:37:49.147Z,1.20
2023-05-13T09:40:18.902Z,1.20
2023-05-13T09:42:47.681Z,1.30
2023-05-13T09:45:17.465Z,1.50
2023-05-13T09:47:45.398Z,1.30
2023-05-13T09:50:13.468Z,1.43
2023-05-13T09:52:41.372Z,1.50
2023-05-13T09:55:10.667Z,1.20
2023-05-13T09:57:40.846Z,1.30
2023-05-13T10:00:21.102Z,1.07
2023-05-13T10:02:57.673Z,1.07
2023-05-13T10:05:26.176Z,1.30
2023-05-13T10:07:54.039Z,1.40
2023-05-13T10:10:22.453Z,1.30
2023-05-13T10:12:52.481Z,1.13
2023-05-13T10:15:20.962Z,1.10
2023-05-13T10:17:49.338Z,1.30
2023-05-13T10:20:18.548Z,1.30
2023-05-13T10:22:46.474Z,1.10
2023-05-13T10:25:14.338Z,1.27
2023-05-13T10:27:43.614Z,1.40
2023-05-13T10:30:14.900Z,1.23
2023-05-13T10:32:42.937Z,1.20
2023-05-13T10:35:13.884Z,1.20
2023-05-13T10:38:02.916Z,1.30
2023-05-13T10:40:36.738Z,1.10
2023-05-13T10:43:13.447Z,1.13
2023-05-13T10:45:45.774Z,1.13
2023-05-13T10:48:14.756Z,1.30
2023-05-13T10:50:52.780Z,1.10
2023-05-13T10:53:24.901Z,1.17
2023-05-13T10:55:57.279Z,1.10
2023-05-13T10:58:30.523Z,1.20
2023-05-13T11:03:56.404Z,1.03
2023-05-13T11:06:27.154Z,1.30
2023-05-13T11:08:56.295Z,1.10
2023-05-13T11:11:31.043Z,1.20
2023-05-13T11:14:08.562Z,1.40
2023-05-13T11:16:37.316Z,1.00
2023-05-13T11:19:11.617Z,0.97
2023-05-13T11:21:41.337Z,0.93
2023-05-13T11:24:09.513Z,1.10
2023-05-13T11:26:47.453Z,1.10
2023-05-13T11:29:15.366Z,1.00
2023-05-13T11:31:46.076Z,1.00
2023-05-13T11:34:17.754Z,1.10
2023-05-13T11:36:47.579Z,1.10
2023-05-13T11:39:16.771Z,1.00
2023-05-13T11:41:46.395Z,0.90
2023-05-13T11:44:15.527Z,0.97
2023-05-13T11:46:57.724Z,1.00
2023-05-13T11:49:34.371Z,1.10
2023-05-13T11:52:02.585Z,0.90
2023-05-13T11:54:30.569Z,1.00
2023-05-13T11:56:58.379Z,1.00
2023-05-13T11:59:26.815Z,0.80
2023-05-13T12:02:02.384Z,1.00
2023-05-13T12:04:31.260Z,0.93
2023-05-13T12:07:00.523Z,0.80
2023-05-13T12:09:28.355Z,1.13
2023-05-13T12:11:56.471Z,0.90
2023-05-13T12:14:26.415Z,0.90
2023-05-13T12:16:55.634Z,1.00
2023-05-13T12:19:23.484Z,0.90
2023-05-13T12:21:51.690Z,1.00
2023-05-13T12:24:21.812Z,0.97
2023-05-13T12:26:50.034Z,0.90
2023-05-13T12:29:17.963Z,0.80
2023-05-13T12:32:06.662Z,0.80
2023-05-13T12:34:35.659Z,0.90
2023-05-13T12:37:13.456Z,0.90
2023-05-13T12:39:43.494Z,0.87
2023-05-13T12:42:18.379Z,0.70
2023-05-13T12:44:46.681Z,1.10
2023-05-13T12:47:15.813Z,1.00
2023-05-13T12:49:53.590Z,0.90
2023-05-13T12:52:21.853Z,0.87
2023-05-13T12:54:51.134Z,0.80
2023-05-13T12:57:20.574Z,1.00
2023-05-13T12:59:48.632Z,1.00
2023-05-13T13:02:16.462Z,0.90
2023-05-13T13:04:44.260Z,0.87
2023-05-13T13:07:14.694Z,1.00
2023-05-13T13:09:43.874Z,0.80
2023-05-13T13:12:14.180Z,1.10
2023-05-13T13:14:41.982Z,1.00
2023-05-13T13:17:10.871Z,0.80
2023-05-13T13:19:38.693Z,0.93
2023-05-13T13:22:06.820Z,1.00
2023-05-13T13:24:35.621Z,0.80
2023-05-13T13:27:03.569Z,0.90
2023-05-13T13:29:32.741Z,0.90
2023-05-13T13:32:00.600Z,0.87
2023-05-13T13:34:28.430Z,0.80
2023-05-13T13:36:56.321Z,0.97
2023-05-13T13:39:24.169Z,1.00
2023-05-13T13:41:52.019Z,0.80
2023-05-13T13:44:19.863Z,1.10
2023-05-13T13:46:49.092Z,1.27
2023-05-13T13:49:23.591Z,0.90
2023-05-13T13:51:52.358Z,0.90
2023-05-13T13:54:20.466Z,1.10
2023-05-13T13:56:49.176Z,0.80
2023-05-13T13:59:19.274Z,0.93
2023-05-13T14:01:47.355Z,0.80
2023-05-13T14:04:19.862Z,0.97
2023-05-13T14:06:47.804Z,0.73
2023-05-13T14:09:15.940Z,0.90
2023-05-13T14:11:43.780Z,0.80
2023-05-13T14:14:11.606Z,0.90
2023-05-13T14:16:39.516Z,0.73
2023-05-13T14:19:07.424Z,0.90
2023-05-13T14:21:36.743Z,0.80
2023-05-13T14:24:04.558Z,0.83
2023-05-13T14:26:32.523Z,0.70
2023-05-13T14:29:00.408Z,0.90
2023-05-13T14:31:28.434Z,0.60
2023-05-13T14:33:56.313Z,0.60
2023-05-13T14:36:26.593Z,0.90
2023-05-13T14:38:55.898Z,0.67
2023-05-13T14:41:24.254Z,0.70
2023-05-13T14:43:52.646Z,0.83
2023-05-13T14:46:21.662Z,0.70
2023-05-13T14:48:49.710Z,0.70
2023-05-13T14:51:17.810Z,0.73
2023-05-13T14:53:45.639Z,0.80
2023-05-13T14:56:14.835Z,0.63
2023-05-13T14:58:42.756Z,0.60
2023-05-13T15:01:10.734Z,0.67
2023-05-13T15:03:38.829Z,0.80
2023-05-13T15:06:07.447Z,0.83
2023-05-13T15:08:35.721Z,0.70
2023-05-13T15:11:03.520Z,0.60
2023-05-13T15:13:35.306Z,0.80
2023-05-13T15:16:03.602Z,0.70
2023-05-13T15:18:31.704Z,0.73
2023-05-13T15:20:59.776Z,0.70
2023-05-13T15:23:28.838Z,0.80
2023-05-13T15:25:56.686Z,0.70
2023-05-13T15:28:24.819Z,0.70
2023-05-13T15:30:54.072Z,0.70
2023-05-13T15:33:22.112Z,0.67
2023-05-13T15:35:51.010Z,0.70
2023-05-13T15:38:19.146Z,0.70
2023-05-13T15:40:47.471Z,0.80
2023-05-13T15:43:15.629Z,1.70
2023-05-13T15:45:43.573Z,2.77
2023-05-13T15:48:12.847Z,3.03
2023-05-13T15:50:41.073Z,2.40
2023-05-13T15:53:08.933Z,2.23
2023-05-13T15:55:37.444Z,1.70
2023-05-13T15:58:05.258Z,1.47
2023-05-13T16:00:33.213Z,1.33
2023-05-13T16:03:01.460Z,1.40
2023-05-13T16:05:31.086Z,1.20
2023-05-13T16:07:58.939Z,1.33
2023-05-13T16:10:26.782Z,1.10
2023-05-13T16:12:54.630Z,1.13
2023-05-13T16:15:22.631Z,1.23
2023-05-13T16:17:50.493Z,1.30
2023-05-13T16:20:18.745Z,1.00
2023-05-13T16:22:48.009Z,1.40
2023-05-13T16:25:15.891Z,1.27
2023-05-13T16:27:44.036Z,1.30
2023-05-13T16:30:12.756Z,1.30
2023-05-13T16:32:40.709Z,1.37
2023-05-13T16:35:11.627Z,1.40
2023-05-13T16:37:39.496Z,1.50
2023-05-13T16:40:10.637Z,1.30
2023-05-13T16:42:38.637Z,1.40
2023-05-13T16:45:07.583Z,1.30
2023-05-13T16:47:35.659Z,1.63
2023-05-13T16:50:03.613Z,1.40
2023-05-13T16:52:32.627Z,1.50
2023-05-13T16:55:00.472Z,1.40
2023-05-13T16:57:29.880Z,1.37
2023-05-13T16:59:57.749Z,1.27
2023-05-13T17:02:25.748Z,1.30
2023-05-13T17:04:53.654Z,1.50
2023-05-13T17:07:21.536Z,1.30
2023-05-13T17:09:49.401Z,1.20
2023-05-13T17:12:17.705Z,1.10
2023-05-13T17:14:46.917Z,1.50
2023-05-13T17:17:15.071Z,1.20
2023-05-13T17:19:43.218Z,1.37
2023-05-13T17:22:11.051Z,1.47
2023-05-13T17:24:39.889Z,1.20
2023-05-13T17:27:09.319Z,1.27
2023-05-13T17:29:37.507Z,1.40
2023-05-13T17:32:07.566Z,1.30
2023-05-13T17:34:35.466Z,1.50
2023-05-13T17:37:03.257Z,1.57
2023-05-13T17:39:31.100Z,1.30
2023-05-13T17:41:58.939Z,1.27
2023-05-13T17:44:26.905Z,1.60
2023-05-13T17:46:56.021Z,1.30
2023-05-13T17:49:25.271Z,1.43
2023-05-13T17:51:53.438Z,1.17
2023-05-13T17:54:22.344Z,1.30
2023-05-13T17:56:50.731Z,1.37
2023-05-13T17:59:18.598Z,1.13
2023-05-13T18:01:46.485Z,1.30
2023-05-13T18:04:14.433Z,1.40
2023-05-13T18:06:43.670Z,1.20
2023-05-13T18:09:12.014Z,1.40
2023-05-13T18:11:39.878Z,1.27
2023-05-13T18:14:07.945Z,1.33
2023-05-13T18:16:35.823Z,1.50
2023-05-13T18:19:03.745Z,1.47
2023-05-13T18:21:31.729Z,1.43
2023-05-13T18:24:00.901Z,1.40
2023-05-13T18:26:30.732Z,1.70
2023-05-13T18:28:58.747Z,1.70
2023-05-13T18:31:26.670Z,1.20
2023-05-13T18:33:54.557Z,1.40
2023-05-13T18:36:23.919Z,1.30
2023-05-13T18:38:51.796Z,1.40
2023-05-13T18:41:21.461Z,1.80
2023-05-13T18:43:49.490Z,1.90
2023-05-13T18:46:17.492Z,2.30
2023-05-13T18:48:46.429Z,2.10
2023-05-13T18:51:14.605Z,2.40
2023-05-13T18:53:42.498Z,2.67
2023-05-13T18:56:10.403Z,2.50
2023-05-13T18:58:39.641Z,2.50
2023-05-13T19:01:08.023Z,2.90
2023-05-13T19:03:36.435Z,2.50
2023-05-13T19:06:04.523Z,2.40
2023-05-13T19:08:32.359Z,2.50
2023-05-13T19:11:00.346Z,3.03
2023-05-13T19:13:39.489Z,2.80
2023-05-13T19:16:15.906Z,2.73
2023-05-13T19:18:43.836Z,2.67
2023-05-13T19:21:12.229Z,2.40
2023-05-13T19:23:40.082Z,2.63
2023-05-13T19:26:08.092Z,2.27
2023-05-13T19:28:36.383Z,2.07
2023-05-13T19:31:04.303Z,2.00
2023-05-13T19:33:33.582Z,1.97
2023-05-13T19:36:01.522Z,1.93
2023-05-13T19:38:29.359Z,1.80
2023-05-13T19:40:57.191Z,1.67
2023-05-13T19:43:25.366Z,1.90
2023-05-13T19:45:55.449Z,1.70
2023-05-13T19:48:23.311Z,1.70
2023-05-13T19:50:53.499Z,1.60
2023-05-13T19:53:22.176Z,2.00
2023-05-13T19:55:49.972Z,1.97
2023-05-13T19:58:17.863Z,1.53
2023-05-13T20:00:46.379Z,1.90
2023-05-13T20:03:14.722Z,1.67
2023-05-13T20:05:42.631Z,1.80
2023-05-13T20:08:11.895Z,1.60
2023-05-13T20:10:40.441Z,1.70
2023-05-13T20:13:08.285Z,2.00
2023-05-13T20:15:36.415Z,2.10
2023-05-13T20:18:04.286Z,1.90
2023-05-13T20:20:35.432Z,1.73
2023-05-13T20:23:03.223Z,1.83
2023-05-13T20:25:32.416Z,2.00
2023-05-13T20:28:00.253Z,1.80
2023-05-13T20:30:28.086Z,2.00
2023-05-13T20:32:55.953Z,2.00
2023-05-13T20:35:24.021Z,2.13
2023-05-13T20:37:51.854Z,2.47
2023-05-13T20:40:19.907Z,2.47
2023-05-13T20:42:49.046Z,2.10
2023-05-13T20:45:17.013Z,2.40
2023-05-13T20:47:44.931Z,2.23
2023-05-13T20:50:13.518Z,2.57
2023-05-13T20:52:41.496Z,2.30
2023-05-13T20:55:10.429Z,2.27
2023-05-13T20:57:38.395Z,2.30
2023-05-13T21:00:09.437Z,2.07
2023-05-13T21:02:37.361Z,1.83
2023-05-13T21:05:05.629Z,2.33
2023-05-13T21:07:35.581Z,2.30
2023-05-13T21:10:03.445Z,2.00
2023-05-13T21:12:31.274Z,1.97
2023-05-13T21:14:59.193Z,1.60
2023-05-13T21:17:28.431Z,1.73
2023-05-13T21:19:57.402Z,1.93
2023-05-13T21:22:25.185Z,1.90
2023-05-13T21:24:52.997Z,1.63
2023-05-13T21:27:21.417Z,1.70
2023-05-13T21:29:49.252Z,1.83
2023-05-13T21:32:17.598Z,1.73
2023-05-13T21:34:46.931Z,2.03
2023-05-13T21:37:16.744Z,1.60
2023-05-13T21:39:44.544Z,1.43
2023-05-13T21:42:12.500Z,1.53
2023-05-13T21:44:40.985Z,1.60
2023-05-13T21:47:08.848Z,1.40
2023-05-13T21:49:36.694Z,1.50
2023-05-13T21:52:06.548Z,1.53
2023-05-13T21:54:34.365Z,1.47
2023-05-13T21:57:02.345Z,1.30
2023-05-13T21:59:30.223Z,1.70
2023-05-13T22:01:58.268Z,1.40
2023-05-13T22:04:26.705Z,1.43
2023-05-13T22:06:54.871Z,1.47
2023-05-13T22:09:24.374Z,1.20
2023-05-13T22:11:52.271Z,1.20
2023-05-13T22:14:20.268Z,1.20
2023-05-13T22:16:57.490Z,1.40
2023-05-13T22:19:35.738Z,1.10
2023-05-13T22:22:03.607Z,1.57
2023-05-13T22:24:33.062Z,1.40
2023-05-13T22:27:01.291Z,1.10
2023-05-13T22:29:29.331Z,1.60
2023-05-13T22:31:57.786Z,1.73
2023-05-13T22:34:26.546Z,1.10
2023-05-13T22:36:54.365Z,1.23
2023-05-13T22:39:22.240Z,1.50
2023-05-13T22:41:51.683Z,1.57
2023-05-13T22:44:19.534Z,1.20
2023-05-13T22:46:47.533Z,1.20
2023-05-13T22:49:15.441Z,1.50
2023-05-13T22:51:43.293Z,2.23
2023-05-13T22:54:11.107Z,2.10
2023-05-13T22:56:39.146Z,1.80
2023-05-13T22:59:08.375Z,1.80
2023-05-13T23:01:36.260Z,1.40
2023-05-13T23:04:05.673Z,1.33
2023-05-13T23:06:33.717Z,1.30
2023-05-13T23:09:01.997Z,1.50
2023-05-13T23:11:29.883Z,1.20
2023-05-13T23:13:57.700Z,1.50
2023-05-13T23:16:26.925Z,1.20
2023-05-13T23:18:55.914Z,1.17
2023-05-13T23:21:23.773Z,1.10
2023-05-13T23:23:52.133Z,1.20
2023-05-13T23:26:20.043Z,1.30
2023-05-13T23:28:47.807Z,0.90
2023-05-13T23:31:16.531Z,1.00
2023-05-13T23:33:45.797Z,1.13
2023-05-13T23:36:15.742Z,1.20
2023-05-13T23:38:43.550Z,1.10
2023-05-13T23:41:11.454Z,1.07
2023-05-13T23:43:39.284Z,1.00
2023-05-13T23:46:07.142Z,1.20
2023-05-13T23:48:35.000Z,1.00
2023-05-13T23:51:04.261Z,1.00
2023-05-13T23:53:32.134Z,1.13
2023-05-13T23:55:59.990Z,1.00
2023-05-13T23:58:27.823Z,1.10
